createdAt,value
2019-03-29T00:02:31.932Z,19.47
2019-03-29T00:07:39.736Z,19.83
2019-03-29T00:12:39.036Z,18.17
2019-03-29T00:17:41.768Z,19.90
2019-03-29T00:22:44.408Z,18.00
2019-03-29T00:27:46.998Z,19.20
2019-03-29T00:32:49.636Z,17.97
2019-03-29T00:37:53.864Z,19.03
2019-03-29T00:42:56.696Z,17.50
2019-03-29T00:47:59.282Z,17.73
2019-03-29T00:53:01.898Z,14.80
2019-03-29T00:58:04.607Z,16.43
2019-03-29T01:03:07.261Z,17.50
2019-03-29T01:08:10.793Z,14.23
2019-03-29T01:13:13.576Z,15.70
2019-03-29T01:18:16.173Z,14.43
2019-03-29T01:23:18.799Z,15.77
2019-03-29T01:28:21.702Z,16.50
2019-03-29T01:33:25.060Z,14.73
2019-03-29T01:38:28.176Z,14.47
2019-03-29T01:43:31.865Z,14.60
2019-03-29T01:48:34.548Z,15.73
2019-03-29T01:53:37.294Z,18.17
2019-03-29T01:58:40.721Z,16.53
2019-03-29T02:03:44.740Z,16.40
2019-03-29T02:08:47.300Z,17.33
2019-03-29T02:13:49.909Z,18.77
2019-03-29T02:18:52.535Z,18.30
2019-03-29T02:23:55.172Z,19.37
2019-03-29T02:28:57.716Z,18.93
2019-03-29T02:34:00.290Z,19.70
2019-03-29T02:39:03.974Z,19.83
2019-03-29T02:44:07.611Z,17.97
2019-03-29T02:49:12.630Z,21.20
2019-03-29T02:54:15.230Z,18.40
2019-03-29T02:59:17.774Z,18.03
2019-03-29T03:04:20.438Z,19.43
2019-03-29T03:09:23.095Z,22.63
2019-03-29T03:14:25.733Z,18.60
2019-03-29T03:19:28.329Z,18.67
2019-03-29T03:24:31.063Z,19.57
2019-03-29T03:29:33.658Z,19.40
2019-03-29T03:34:36.168Z,18.20
2019-03-29T03:39:38.842Z,21.03
2019-03-29T03:44:41.499Z,21.87
2019-03-29T03:49:44.136Z,21.73
2019-03-29T03:54:46.764Z,24.20
2019-03-29T03:59:53.420Z,21.37
2019-03-29T04:04:56.076Z,20.37
2019-03-29T04:10:01.116Z,20.33
2019-03-29T04:15:05.713Z,19.53
2019-03-29T04:20:10.595Z,17.20
2019-03-29T04:25:13.353Z,15.23
2019-03-29T04:30:16.053Z,16.67
2019-03-29T04:35:18.712Z,17.47
2019-03-29T04:40:21.373Z,15.13
2019-03-29T04:45:25.857Z,15.30
2019-03-29T04:50:29.739Z,16.03
2019-03-29T04:55:33.627Z,14.60
2019-03-29T05:00:36.273Z,15.70
2019-03-29T05:05:38.954Z,15.70
2019-03-29T05:10:41.635Z,14.87
2019-03-29T05:15:44.263Z,13.70
2019-03-29T05:20:46.889Z,14.30
2019-03-29T05:25:49.547Z,17.00
2019-03-29T05:30:52.068Z,15.27
2019-03-29T05:35:54.737Z,16.23
2019-03-29T05:40:57.415Z,14.93
2019-03-29T05:46:00.029Z,14.70
2019-03-29T05:51:03.889Z,15.27
2019-03-29T05:56:07.646Z,16.10
2019-03-29T06:01:10.321Z,15.90
2019-03-29T06:06:12.992Z,14.90
2019-03-29T06:11:15.589Z,18.60
2019-03-29T06:16:18.209Z,18.00
2019-03-29T06:21:20.988Z,17.47
2019-03-29T06:26:23.604Z,17.57
2019-03-29T06:31:26.191Z,17.33
2019-03-29T06:36:30.328Z,20.27
2019-03-29T06:41:32.977Z,20.40
2019-03-29T06:46:35.624Z,20.53
2019-03-29T06:51:38.308Z,17.67
2019-03-29T06:56:41.002Z,20.20
2019-03-29T07:01:46.301Z,18.30
2019-03-29T07:06:50.617Z,18.87
2019-03-29T07:11:53.270Z,19.70
2019-03-29T07:16:55.943Z,20.73
2019-03-29T07:21:58.671Z,21.63
2019-03-29T07:27:01.394Z,23.50
2019-03-29T07:32:04.105Z,19.03
2019-03-29T07:37:06.746Z,17.83
2019-03-29T07:42:09.396Z,19.60
2019-03-29T07:47:12.068Z,20.37
2019-03-29T07:52:14.741Z,18.37
2019-03-29T07:57:21.198Z,16.37
2019-03-29T08:02:23.882Z,16.70
2019-03-29T08:07:28.127Z,15.83
2019-03-29T08:12:31.256Z,15.53
2019-03-29T08:17:34.011Z,15.23
2019-03-29T08:22:37.788Z,13.43
2019-03-29T08:27:40.396Z,13.90
2019-03-29T08:32:43.003Z,13.30
2019-03-29T08:37:45.632Z,12.67
2019-03-29T08:42:48.238Z,11.40
2019-03-29T08:47:50.817Z,12.23
2019-03-29T08:52:57.003Z,9.97
2019-03-29T08:57:59.729Z,9.70
2019-03-29T09:03:02.444Z,10.73
2019-03-29T09:08:05.065Z,10.30
2019-03-29T09:13:07.764Z,9.17
2019-03-29T09:18:10.599Z,10.07
2019-03-29T09:23:13.214Z,8.63
2019-03-29T09:28:16.187Z,6.80
2019-03-29T09:33:20.984Z,6.37
2019-03-29T09:38:23.505Z,5.27
2019-03-29T09:43:26.779Z,2.63
2019-03-29T09:48:30.257Z,2.93
2019-03-29T09:53:32.945Z,2.10
2019-03-29T09:58:35.547Z,1.70
2019-03-29T10:03:38.240Z,2.40
2019-03-29T10:08:40.887Z,1.70
2019-03-29T10:13:43.491Z,1.80
2019-03-29T10:18:46.206Z,1.87
2019-03-29T10:23:48.789Z,1.50
2019-03-29T10:28:51.459Z,1.57
2019-03-29T10:33:54.119Z,1.70
2019-03-29T10:38:56.693Z,1.60
2019-03-29T10:43:59.687Z,1.63
2019-03-29T10:49:02.292Z,1.77
2019-03-29T10:54:04.908Z,1.97
2019-03-29T10:59:07.505Z,2.10
2019-03-29T11:04:10.415Z,1.73
2019-03-29T11:09:13.044Z,2.43
2019-03-29T11:14:15.720Z,2.83
2019-03-29T11:19:18.380Z,3.03
2019-03-29T11:24:21.021Z,2.70
2019-03-29T11:29:24.038Z,3.27
2019-03-29T11:34:26.656Z,3.90
2019-03-29T11:39:29.241Z,3.30
2019-03-29T11:44:31.858Z,4.10
2019-03-29T11:49:34.435Z,4.67
2019-03-29T11:54:36.981Z,5.10
2019-03-29T11:59:40.290Z,3.70
2019-03-29T12:04:43.139Z,4.80
2019-03-29T12:09:45.783Z,5.57
2019-03-29T12:14:48.454Z,5.70
2019-03-29T12:19:51.100Z,6.33
2019-03-29T12:24:53.702Z,6.80
2019-03-29T12:29:56.307Z,6.70
2019-03-29T12:34:58.791Z,5.87
2019-03-29T12:40:01.470Z,6.73
2019-03-29T12:45:04.930Z,6.60
2019-03-29T12:50:08.523Z,6.17
2019-03-29T12:55:11.211Z,5.17
2019-03-29T13:00:14.460Z,3.87
2019-03-29T13:05:17.152Z,3.40
2019-03-29T13:10:19.797Z,3.20
2019-03-29T13:15:23.639Z,2.53
2019-03-29T13:20:26.451Z,2.60
2019-03-29T13:25:29.054Z,2.57
2019-03-29T13:30:31.970Z,2.77
2019-03-29T13:35:35.078Z,2.43
2019-03-29T13:40:37.732Z,2.13
2019-03-29T13:45:40.377Z,2.33
2019-03-29T13:50:42.941Z,2.40
2019-03-29T13:55:45.550Z,2.30
2019-03-29T14:00:48.224Z,2.30
2019-03-29T14:05:50.853Z,2.13
2019-03-29T14:10:53.567Z,2.23
2019-03-29T14:15:56.205Z,2.10
2019-03-29T14:21:00.055Z,2.03
2019-03-29T14:26:04.594Z,2.60
2019-03-29T14:31:07.172Z,2.27
2019-03-29T14:36:09.774Z,2.27
2019-03-29T14:41:12.386Z,2.40
2019-03-29T14:46:14.976Z,3.00
2019-03-29T14:51:17.605Z,2.03
2019-03-29T14:56:20.273Z,2.40
2019-03-29T15:01:22.799Z,2.37
2019-03-29T15:06:25.497Z,2.33
2019-03-29T15:11:28.111Z,2.30
2019-03-29T15:16:30.747Z,2.13
2019-03-29T15:21:33.363Z,2.03
2019-03-29T15:26:35.995Z,2.20
2019-03-29T15:31:38.663Z,2.73
2019-03-29T15:36:41.291Z,2.40
2019-03-29T15:41:43.925Z,2.33
2019-03-29T15:46:46.509Z,2.63
2019-03-29T15:51:49.116Z,2.50
2019-03-29T15:56:51.815Z,2.00
2019-03-29T16:01:54.524Z,2.03
2019-03-29T16:06:57.108Z,2.33
2019-03-29T16:12:01.073Z,2.87
2019-03-29T16:17:03.710Z,2.40
2019-03-29T16:22:06.374Z,3.20
2019-03-29T16:27:09.135Z,3.60
2019-03-29T16:32:11.782Z,2.97
2019-03-29T16:37:16.272Z,2.70
2019-03-29T16:42:18.909Z,2.67
2019-03-29T16:47:21.532Z,2.93
2019-03-29T16:52:24.181Z,3.70
2019-03-29T16:57:26.878Z,3.13
2019-03-29T17:02:29.556Z,3.17
2019-03-29T17:07:32.337Z,3.67
2019-03-29T17:12:35.240Z,3.20
2019-03-29T17:17:37.900Z,4.00
2019-03-29T17:22:43.279Z,3.47
2019-03-29T17:27:51.996Z,3.27
2019-03-29T17:32:57.808Z,3.00
2019-03-29T17:38:00.464Z,3.10
2019-03-29T17:43:03.089Z,3.03
2019-03-29T17:48:05.804Z,2.87
2019-03-29T17:53:08.375Z,4.27
2019-03-29T17:58:11.082Z,4.37
2019-03-29T18:03:13.753Z,5.17
2019-03-29T18:08:16.368Z,4.27
2019-03-29T18:13:19.055Z,4.63
2019-03-29T18:18:29.554Z,5.43
2019-03-29T18:23:32.147Z,5.20
2019-03-29T18:28:38.120Z,4.87
2019-03-29T18:33:43.213Z,5.73
2019-03-29T18:38:46.688Z,4.90
2019-03-29T18:43:49.455Z,5.10
2019-03-29T18:48:52.086Z,5.60
2019-03-29T18:53:54.797Z,6.20
2019-03-29T18:58:57.296Z,5.90
2019-03-29T19:04:00.014Z,6.23
2019-03-29T19:09:03.980Z,6.07
2019-03-29T19:14:06.700Z,6.53
2019-03-29T19:19:10.474Z,6.03
2019-03-29T19:24:13.524Z,6.13
2019-03-29T19:29:16.153Z,7.10
2019-03-29T19:34:18.851Z,6.60
2019-03-29T19:39:21.527Z,7.60
2019-03-29T19:44:24.143Z,9.03
2019-03-29T19:49:26.791Z,9.53
2019-03-29T19:54:29.331Z,9.47
2019-03-29T19:59:32.014Z,9.33
2019-03-29T20:04:34.671Z,12.47
2019-03-29T20:09:37.363Z,13.73
2019-03-29T20:14:42.115Z,14.50
2019-03-29T20:19:44.756Z,16.37
2019-03-29T20:24:47.414Z,15.30
2019-03-29T20:29:52.187Z,15.03
2019-03-29T20:34:54.777Z,15.83
2019-03-29T20:39:57.378Z,15.27
2019-03-29T20:44:59.874Z,14.53
2019-03-29T20:50:02.862Z,14.80
2019-03-29T20:55:05.738Z,16.23
2019-03-29T21:00:10.122Z,14.10
2019-03-29T21:05:12.702Z,15.40
2019-03-29T21:10:15.721Z,13.90
2019-03-29T21:15:18.445Z,15.20
2019-03-29T21:20:21.113Z,15.20
2019-03-29T21:25:24.086Z,15.07
2019-03-29T21:30:26.666Z,14.83
2019-03-29T21:35:29.380Z,14.33
2019-03-29T21:40:31.966Z,13.97
2019-03-29T21:45:34.596Z,13.83
2019-03-29T21:50:37.202Z,14.60
2019-03-29T21:55:39.807Z,15.37
2019-03-29T22:00:44.220Z,13.53
2019-03-29T22:05:46.903Z,14.17
2019-03-29T22:10:49.696Z,13.30
2019-03-29T22:15:52.310Z,13.67
2019-03-29T22:20:56.165Z,13.90
2019-03-29T22:25:58.866Z,15.97
2019-03-29T22:31:01.496Z,15.00
2019-03-29T22:36:04.139Z,15.20
2019-03-29T22:41:06.721Z,14.37
2019-03-29T22:46:09.320Z,16.03
2019-03-29T22:51:11.975Z,14.83
2019-03-29T22:56:14.570Z,14.20
2019-03-29T23:01:17.749Z,14.60
2019-03-29T23:06:20.361Z,14.03
2019-03-29T23:11:22.999Z,13.97
2019-03-29T23:16:25.619Z,13.97
2019-03-29T23:21:28.274Z,15.87
2019-03-29T23:26:32.146Z,15.10
2019-03-29T23:31:34.768Z,14.40
2019-03-29T23:36:37.411Z,14.33
2019-03-29T23:41:40.039Z,14.67
2019-03-29T23:46:42.726Z,15.20
2019-03-29T23:51:45.333Z,13.57
2019-03-29T23:56:47.980Z,15.13
